Time;durP1;ratioP1;P1;durP2;ratioP2;P2;SDS_P1;SDS_P2;PMS_P1;PMS_P2;Temp;Humidity;BMP_temperature;BMP_pressure;BME280_temperature;BME280_humidity;BME280_pressure;Samples;Min_cycle;Max_cycle;Signal;HPM_P1;HPM_P2
2022/01/06 00:00:58;;;;;;;9.10;2.35;;;3.00;99.90;;;;;;4951502;29;20124;-79
2022/01/06 00:03:29;;;;;;;13.98;2.40;;;3.00;99.90;;;;;;5718498;23;20049;-96
2022/01/06 00:06:02;;;;;;;7.50;2.40;;;2.90;99.90;;;;;;4941758;29;20058;-93
2022/01/06 00:08:29;;;;;;;10.27;2.95;;;2.90;99.90;;;;;;4942544;29;20087;-90
2022/01/06 00:10:57;;;;;;;9.68;2.33;;;2.90;99.90;;;;;;4930768;29;20047;-92
2022/01/06 00:13:32;;;;;;;11.57;2.40;;;2.90;99.90;;;;;;4956275;28;20066;-93
2022/01/06 00:16:15;;;;;;;7.63;2.13;;;2.90;99.90;;;;;;4956150;29;20058;-94
2022/01/06 00:24:30;;;;;;;8.63;2.05;;;2.90;99.90;;;;;;4869329;29;20056;-88
2022/01/06 00:26:59;;;;;;;9.25;2.22;;;2.90;99.90;;;;;;4909873;29;20489;-91
2022/01/06 00:29:26;;;;;;;7.40;2.30;;;2.90;99.90;;;;;;4945965;28;20055;-93
2022/01/06 00:31:54;;;;;;;9.25;2.80;;;2.90;99.90;;;;;;4957779;29;20657;-93
2022/01/06 00:34:23;;;;;;;10.55;2.22;;;2.90;99.90;;;;;;4960033;28;20441;-89
2022/01/06 00:36:51;;;;;;;8.32;2.45;;;2.90;99.90;;;;;;4949522;28;20058;-92
2022/01/06 00:39:19;;;;;;;11.68;2.63;;;2.90;99.90;;;;;;4948801;28;20062;-94
2022/01/06 00:41:55;;;;;;;8.45;2.28;;;3.00;99.90;;;;;;4968390;29;20058;-94
2022/01/06 00:44:23;;;;;;;6.40;2.10;;;3.00;99.90;;;;;;4968541;29;20048;-94
2022/01/06 00:46:52;;;;;;;9.40;2.30;;;3.00;99.90;;;;;;4949626;29;20050;-94
2022/01/06 00:49:26;;;;;;;8.65;2.42;;;2.90;99.90;;;;;;4957747;28;20051;-93
2022/01/06 00:52:00;;;;;;;7.22;2.40;;;2.90;99.90;;;;;;4971318;29;20062;-93
2022/01/06 00:54:34;;;;;;;8.20;2.55;;;2.90;99.90;;;;;;4972785;29;20051;-94
2022/01/06 00:57:05;;;;;;;7.63;2.53;;;2.90;99.90;;;;;;4973063;29;20058;-93
2022/01/06 00:59:41;;;;;;;7.55;2.40;;;2.90;99.90;;;;;;4963238;29;20055;-94
2022/01/06 01:02:09;;;;;;;11.18;2.88;;;2.80;99.90;;;;;;4952927;29;20111;-90
2022/01/06 01:04:38;;;;;;;9.25;2.10;;;2.90;99.90;;;;;;4955273;28;20059;-91
2022/01/06 01:07:06;;;;;;;7.50;1.90;;;2.90;99.90;;;;;;4943372;28;20052;-96
2022/01/06 01:09:34;;;;;;;8.23;2.33;;;2.90;99.90;;;;;;4943337;29;20087;-92
2022/01/06 01:12:03;;;;;;;10.13;2.63;;;2.90;99.90;;;;;;4963613;29;20058;-94
2022/01/06 01:14:43;;;;;;;7.32;2.13;;;2.90;99.90;;;;;;4942816;29;20051;-93
2022/01/06 01:17:15;;;;;;;6.70;2.05;;;2.90;99.90;;;;;;4941773;29;20154;-93
2022/01/06 01:19:44;;;;;;;10.07;2.40;;;2.90;99.90;;;;;;4948069;29;20485;-92
2022/01/06 01:22:12;;;;;;;8.63;2.28;;;2.90;99.90;;;;;;4943563;29;20059;-93
2022/01/06 01:24:39;;;;;;;9.82;2.60;;;2.80;99.90;;;;;;4949765;29;20048;-94
2022/01/06 01:27:07;;;;;;;8.32;2.13;;;2.80;99.90;;;;;;4948620;29;20386;-89
2022/01/06 01:29:57;;;;;;;9.48;2.05;;;2.80;99.90;;;;;;4951371;29;20055;-91
2022/01/06 01:32:30;;;;;;;8.30;2.00;;;2.80;99.90;;;;;;4953413;29;20047;-85
2022/01/06 01:35:13;;;;;;;7.40;1.90;;;2.90;99.90;;;;;;4950487;29;20516;-86
2022/01/06 01:37:41;;;;;;;6.75;2.03;;;2.90;99.90;;;;;;4944498;29;20083;-86
2022/01/06 01:40:11;;;;;;;8.40;2.10;;;2.90;99.90;;;;;;4945079;29;20086;-87
2022/01/06 01:42:38;;;;;;;6.35;2.00;;;2.80;99.90;;;;;;4955993;29;20115;-85
2022/01/06 01:45:09;;;;;;;6.40;1.92;;;2.80;99.90;;;;;;4936610;29;20055;-87
2022/01/06 01:47:41;;;;;;;10.60;2.65;;;2.80;99.90;;;;;;4949811;29;20083;-91
2022/01/06 01:50:15;;;;;;;8.30;2.28;;;2.80;99.90;;;;;;4958581;29;20071;-89
2022/01/06 01:52:47;;;;;;;7.35;2.22;;;2.80;99.90;;;;;;4951285;29;20051;-88
2022/01/06 01:55:18;;;;;;;6.68;2.10;;;2.80;99.90;;;;;;4950144;28;20075;-85
2022/01/06 01:57:46;;;;;;;8.23;2.30;;;2.80;99.90;;;;;;4951756;29;20075;-89
2022/01/06 02:00:16;;;;;;;10.82;2.20;;;2.80;99.90;;;;;;4964711;28;20074;-82
2022/01/06 02:02:44;;;;;;;6.78;2.30;;;2.80;99.90;;;;;;4955988;29;20079;-86
2022/01/06 02:05:13;;;;;;;8.35;2.10;;;2.90;99.90;;;;;;4960981;28;20514;-86
2022/01/06 02:07:42;;;;;;;6.25;2.38;;;2.90;99.90;;;;;;4940701;29;20468;-85
2022/01/06 02:10:12;;;;;;;7.72;2.05;;;2.90;99.90;;;;;;4961619;29;20148;-90
2022/01/06 02:12:42;;;;;;;4.97;2.00;;;2.90;99.90;;;;;;4963583;29;20111;-90
2022/01/06 02:15:11;;;;;;;9.38;2.13;;;3.00;99.90;;;;;;4958110;28;20138;-82
2022/01/06 02:17:39;;;;;;;7.05;2.05;;;3.00;99.90;;;;;;4953389;29;20489;-83
2022/01/06 02:20:11;;;;;;;8.75;2.88;;;2.90;99.90;;;;;;4955502;29;20131;-82
2022/01/06 02:22:39;;;;;;;8.60;2.60;;;3.00;99.90;;;;;;4950778;29;20139;-84
2022/01/06 02:25:15;;;;;;;7.75;2.38;;;3.00;99.90;;;;;;4962969;28;20081;-81
2022/01/06 02:27:45;;;;;;;9.57;2.08;;;3.00;99.90;;;;;;4954895;29;20055;-88
2022/01/06 02:30:13;;;;;;;7.43;1.92;;;2.90;99.90;;;;;;4955733;29;20067;-81
2022/01/06 02:32:41;;;;;;;6.93;1.95;;;2.90;99.90;;;;;;4935556;29;20039;-81
2022/01/06 02:35:13;;;;;;;6.03;1.90;;;2.90;99.90;;;;;;4939841;29;20075;-83
2022/01/06 02:37:41;;;;;;;8.35;2.22;;;2.90;99.90;;;;;;4936268;29;20081;-85
2022/01/06 02:40:12;;;;;;;5.97;2.08;;;2.90;99.90;;;;;;4953427;29;20090;-87
2022/01/06 02:42:43;;;;;;;9.38;2.33;;;2.90;99.90;;;;;;4940874;29;20128;-85
2022/01/06 02:45:11;;;;;;;6.53;2.13;;;2.90;99.90;;;;;;4953060;29;20055;-83
2022/01/06 02:47:38;;;;;;;5.10;1.60;;;2.90;99.90;;;;;;4956485;29;20043;-83
2022/01/06 02:50:07;;;;;;;6.78;2.00;;;3.00;99.90;;;;;;4963017;28;20312;-83
2022/01/06 02:52:36;;;;;;;6.75;2.25;;;2.90;99.90;;;;;;4956113;29;20078;-83
2022/01/06 02:55:04;;;;;;;5.70;2.00;;;3.00;99.90;;;;;;4953815;29;20108;-82
2022/01/06 02:57:32;;;;;;;6.07;2.05;;;3.00;99.90;;;;;;4934350;29;20568;-88
2022/01/06 02:59:59;;;;;;;7.32;2.00;;;3.00;99.90;;;;;;4955737;28;20153;-82
2022/01/06 03:02:26;;;;;;;6.90;2.20;;;3.00;99.90;;;;;;4944649;29;20083;-82
2022/01/06 03:04:53;;;;;;;6.30;2.22;;;3.00;99.90;;;;;;4956371;29;20058;-84
2022/01/06 03:07:21;;;;;;;9.77;2.53;;;3.10;99.90;;;;;;4945269;29;20079;-89
2022/01/06 03:09:54;;;;;;;6.22;2.30;;;3.00;99.90;;;;;;4961999;28;20134;-91
2022/01/06 03:12:26;;;;;;;7.72;2.40;;;3.10;99.90;;;;;;4937320;29;20401;-91
2022/01/06 03:14:53;;;;;;;6.53;1.90;;;3.10;99.90;;;;;;4952885;29;20044;-82
2022/01/06 03:17:20;;;;;;;6.85;2.10;;;3.10;99.90;;;;;;4939799;29;20054;-87
2022/01/06 03:19:48;;;;;;;7.07;2.45;;;3.10;99.90;;;;;;4950145;29;20134;-83
2022/01/06 03:22:15;;;;;;;7.88;2.75;;;3.10;99.90;;;;;;4957307;29;20138;-81
2022/01/06 03:24:42;;;;;;;7.85;2.00;;;3.10;99.90;;;;;;4955629;29;20075;-83
2022/01/06 03:27:11;;;;;;;9.48;2.08;;;3.10;99.90;;;;;;4929595;29;20082;-90
2022/01/06 03:29:38;;;;;;;8.93;2.35;;;3.20;99.90;;;;;;4956212;29;20126;-86
2022/01/06 03:32:06;;;;;;;7.20;2.00;;;3.20;99.90;;;;;;4950127;29;20484;-87
2022/01/06 03:34:33;;;;;;;6.57;2.00;;;3.20;99.90;;;;;;4946849;29;20458;-90
2022/01/06 03:37:02;;;;;;;9.35;2.67;;;3.20;99.90;;;;;;4938178;29;20556;-92
2022/01/06 03:39:30;;;;;;;6.65;2.13;;;3.20;99.90;;;;;;4936918;29;20052;-92
2022/01/06 03:41:57;;;;;;;7.07;2.35;;;3.20;99.90;;;;;;4941790;29;20051;-94
2022/01/06 03:44:26;;;;;;;10.20;2.20;;;3.20;99.90;;;;;;4962100;29;20468;-93
2022/01/06 03:46:53;;;;;;;4.88;1.83;;;3.20;99.90;;;;;;4953851;29;20142;-91
2022/01/06 03:49:20;;;;;;;7.80;2.10;;;3.20;99.90;;;;;;4951938;28;20512;-93
2022/01/06 03:51:48;;;;;;;7.15;1.92;;;3.10;99.90;;;;;;4908072;29;20047;-90
2022/01/06 03:54:16;;;;;;;6.70;2.00;;;3.20;99.90;;;;;;4942963;29;20114;-96
2022/01/06 03:56:43;;;;;;;5.53;2.03;;;3.20;99.90;;;;;;4960982;28;20528;-91
2022/01/06 03:59:10;;;;;;;7.88;2.58;;;3.20;99.90;;;;;;4952452;28;20122;-91
2022/01/06 04:01:40;;;;;;;8.00;2.28;;;3.20;99.90;;;;;;4934227;29;20048;-91
2022/01/06 04:04:07;;;;;;;6.50;2.45;;;3.20;99.90;;;;;;4952822;29;20055;-94
2022/01/06 04:06:35;;;;;;;6.05;1.90;;;3.20;99.90;;;;;;4926850;29;20133;-93
2022/01/06 04:09:02;;;;;;;4.93;1.90;;;3.20;99.90;;;;;;4931693;29;20543;-90
2022/01/06 04:11:29;;;;;;;6.85;2.60;;;3.20;99.90;;;;;;4932902;29;20055;-90
2022/01/06 04:13:56;;;;;;;6.22;1.88;;;3.20;99.90;;;;;;4949360;28;20536;-89
2022/01/06 04:16:25;;;;;;;6.13;2.10;;;3.20;99.90;;;;;;4928561;29;20047;-82
2022/01/06 04:18:54;;;;;;;6.68;1.95;;;3.20;99.90;;;;;;4927935;29;20047;-84
2022/01/06 04:21:21;;;;;;;7.40;2.80;;;3.20;99.90;;;;;;4952823;29;20043;-82
2022/01/06 04:23:49;;;;;;;7.47;2.10;;;3.20;99.90;;;;;;4941769;28;20408;-87
2022/01/06 04:26:17;;;;;;;7.50;2.00;;;3.20;99.90;;;;;;4928956;29;20063;-83
2022/01/06 04:28:45;;;;;;;5.90;2.38;;;3.30;99.90;;;;;;4920522;29;20135;-85
2022/01/06 04:31:12;;;;;;;6.30;2.33;;;3.30;99.90;;;;;;4938780;29;20144;-93
2022/01/06 04:33:48;;;;;;;6.25;2.10;;;3.30;99.90;;;;;;4940651;29;20083;-91
2022/01/06 04:36:17;;;;;;;7.57;2.20;;;3.30;99.90;;;;;;4957397;29;20086;-92
2022/01/06 04:38:44;;;;;;;7.05;2.17;;;3.30;99.90;;;;;;4934634;29;20071;-93
2022/01/06 04:41:11;;;;;;;6.65;2.20;;;3.30;99.90;;;;;;4954748;29;20094;-84
2022/01/06 04:43:39;;;;;;;5.85;1.98;;;3.30;99.90;;;;;;4932742;29;20074;-84
2022/01/06 04:46:06;;;;;;;5.55;1.90;;;3.30;99.90;;;;;;4947709;28;20078;-87
2022/01/06 04:48:35;;;;;;;7.70;2.22;;;3.30;99.90;;;;;;4944693;29;20461;-87
2022/01/06 04:51:03;;;;;;;7.60;2.20;;;3.30;99.90;;;;;;4913704;29;20405;-93
2022/01/06 04:53:31;;;;;;;5.72;2.08;;;3.30;99.90;;;;;;4924135;29;20133;-86
2022/01/06 04:56:00;;;;;;;6.47;1.90;;;3.30;99.90;;;;;;4955029;28;20091;-89
2022/01/06 04:58:28;;;;;;;5.10;1.92;;;3.30;99.90;;;;;;4930955;29;20062;-84
2022/01/06 05:01:02;;;;;;;5.55;1.85;;;3.30;99.90;;;;;;4948939;29;20498;-87
2022/01/06 05:03:29;;;;;;;4.90;1.95;;;3.30;99.90;;;;;;4910956;29;20055;-88
2022/01/06 05:05:56;;;;;;;7.13;1.77;;;3.30;99.90;;;;;;4950920;29;20047;-94
2022/01/06 05:08:23;;;;;;;5.45;1.85;;;3.30;99.90;;;;;;4949902;28;20130;-91
2022/01/06 05:10:52;;;;;;;6.95;2.00;;;3.30;99.90;;;;;;4935220;29;20486;-83
2022/01/06 05:13:19;;;;;;;7.35;1.90;;;3.30;99.90;;;;;;4940703;29;20450;-87
2022/01/06 05:15:46;;;;;;;5.78;1.88;;;3.20;99.90;;;;;;4922938;29;20044;-85
2022/01/06 05:18:13;;;;;;;4.55;2.00;;;3.20;99.90;;;;;;4942041;29;20151;-83
2022/01/06 05:20:42;;;;;;;6.63;1.90;;;3.20;99.90;;;;;;4953084;28;20131;-89
2022/01/06 05:23:10;;;;;;;7.13;2.13;;;3.20;99.90;;;;;;4939670;29;20143;-87
2022/01/06 05:25:38;;;;;;;4.53;1.80;;;3.20;99.90;;;;;;4958432;29;20051;-83
2022/01/06 05:28:07;;;;;;;6.05;1.80;;;3.20;99.90;;;;;;4926445;29;20482;-89
2022/01/06 05:30:35;;;;;;;4.70;1.80;;;3.20;99.90;;;;;;4930950;29;20561;-93
2022/01/06 05:33:02;;;;;;;5.60;1.90;;;3.20;99.90;;;;;;4940933;29;20086;-92
2022/01/06 05:35:29;;;;;;;5.00;1.70;;;3.20;99.90;;;;;;4949002;29;20526;-95
2022/01/06 05:37:56;;;;;;;5.30;1.92;;;3.20;99.90;;;;;;4916706;29;20044;-96
2022/01/06 05:40:24;;;;;;;4.28;1.60;;;3.20;99.90;;;;;;4921857;29;20140;-92
2022/01/06 05:42:52;;;;;;;4.70;1.90;;;3.20;99.90;;;;;;4916724;29;20054;-88
2022/01/06 05:45:20;;;;;;;4.22;1.55;;;3.20;99.90;;;;;;4943298;28;20187;-90
2022/01/06 05:47:48;;;;;;;4.05;1.50;;;3.20;99.90;;;;;;4958216;28;20568;-86
2022/01/06 05:50:15;;;;;;;5.40;1.65;;;3.20;99.90;;;;;;4942282;29;20158;-91
2022/01/06 05:52:43;;;;;;;4.95;1.58;;;3.20;99.90;;;;;;4959966;28;20074;-88
2022/01/06 05:55:10;;;;;;;3.25;1.60;;;3.20;99.90;;;;;;4942463;29;20083;-84
2022/01/06 05:57:38;;;;;;;4.05;1.80;;;3.20;99.90;;;;;;4954412;29;20103;-83
2022/01/06 06:00:10;;;;;;;5.10;1.75;;;3.20;99.90;;;;;;4947576;29;20127;-84
2022/01/06 06:02:39;;;;;;;4.60;1.63;;;3.20;99.90;;;;;;4951224;29;20056;-92
2022/01/06 06:05:09;;;;;;;5.60;1.60;;;3.20;99.90;;;;;;4942715;28;20383;-88
2022/01/06 06:07:38;;;;;;;4.60;1.77;;;3.20;99.90;;;;;;4952351;29;20047;-90
2022/01/06 06:10:07;;;;;;;5.40;1.70;;;3.20;99.90;;;;;;4958495;28;20051;-90
2022/01/06 06:12:35;;;;;;;4.50;1.70;;;3.20;99.90;;;;;;4952109;29;20401;-93
2022/01/06 06:15:02;;;;;;;5.72;1.90;;;3.20;99.90;;;;;;4943029;28;20056;-91
2022/01/06 06:17:31;;;;;;;5.78;1.70;;;3.20;99.90;;;;;;4942414;29;20047;-87
2022/01/06 06:19:59;;;;;;;4.15;1.45;;;3.10;99.90;;;;;;4946448;29;20083;-87
2022/01/06 06:22:27;;;;;;;3.55;1.70;;;3.20;99.90;;;;;;4958768;29;20074;-84
2022/01/06 06:24:55;;;;;;;5.20;1.75;;;3.20;99.90;;;;;;4957005;29;20082;-91
2022/01/06 06:27:25;;;;;;;5.47;1.80;;;3.20;99.90;;;;;;4943417;29;20631;-85
2022/01/06 06:29:52;;;;;;;4.57;1.50;;;3.20;99.90;;;;;;4957388;28;20044;-83
2022/01/06 06:32:20;;;;;;;4.38;1.77;;;3.20;99.90;;;;;;4939209;28;20143;-82
2022/01/06 06:34:47;;;;;;;4.00;1.33;;;3.20;99.90;;;;;;4920778;29;20201;-88
2022/01/06 06:37:16;;;;;;;3.42;1.70;;;3.20;99.90;;;;;;4934188;29;20130;-90
2022/01/06 06:39:43;;;;;;;3.58;1.50;;;3.20;99.90;;;;;;4919741;29;20071;-81
2022/01/06 06:42:10;;;;;;;4.28;1.70;;;3.20;99.90;;;;;;4926560;29;20102;-88
2022/01/06 06:44:38;;;;;;;3.72;1.70;;;3.20;99.90;;;;;;4928567;29;20054;-82
2022/01/06 06:47:05;;;;;;;4.18;1.55;;;3.20;99.90;;;;;;4923254;29;20087;-85
2022/01/06 06:49:32;;;;;;;3.70;1.80;;;3.20;99.90;;;;;;4936001;29;20090;-85
2022/01/06 06:51:59;;;;;;;4.05;1.73;;;3.20;99.90;;;;;;4926984;29;20136;-87
2022/01/06 06:54:28;;;;;;;3.83;1.70;;;3.20;99.90;;;;;;4907477;29;20134;-84
2022/01/06 06:56:55;;;;;;;3.58;1.55;;;3.20;99.90;;;;;;4932070;29;20131;-85
2022/01/06 06:59:22;;;;;;;3.80;1.60;;;3.20;99.90;;;;;;4931950;29;20574;-93
2022/01/06 07:01:50;;;;;;;3.17;1.50;;;3.10;99.90;;;;;;4909361;29;20131;-91
2022/01/06 07:04:17;;;;;;;4.90;1.58;;;3.20;99.90;;;;;;4940972;29;20051;-88
2022/01/06 07:06:45;;;;;;;3.10;1.48;;;3.20;99.90;;;;;;4934261;29;20111;-86
2022/01/06 07:09:12;;;;;;;3.33;1.70;;;3.20;99.90;;;;;;4935098;29;20076;-92
2022/01/06 07:11:41;;;;;;;3.35;1.73;;;3.20;99.90;;;;;;4949104;29;20047;-90
2022/01/06 07:14:08;;;;;;;3.40;1.67;;;3.20;99.90;;;;;;4950416;29;20059;-91
2022/01/06 07:16:38;;;;;;;3.67;2.10;;;3.20;99.90;;;;;;4955570;28;20481;-88
2022/01/06 07:19:05;;;;;;;4.10;1.90;;;3.20;99.90;;;;;;4928986;28;20048;-83
2022/01/06 07:21:32;;;;;;;3.30;1.73;;;3.20;99.90;;;;;;4931493;29;20079;-83
2022/01/06 07:23:59;;;;;;;4.20;2.55;;;3.20;99.90;;;;;;4930785;29;20506;-84
2022/01/06 07:26:26;;;;;;;3.75;1.80;;;3.20;99.90;;;;;;4918243;29;20130;-89
2022/01/06 07:28:55;;;;;;;3.65;1.88;;;3.20;99.90;;;;;;4942224;29;20498;-83
2022/01/06 07:31:22;;;;;;;4.18;1.77;;;3.20;99.90;;;;;;4916885;29;20142;-83
2022/01/06 07:33:49;;;;;;;4.53;2.25;;;3.20;99.90;;;;;;4943044;29;20130;-84
2022/01/06 07:36:16;;;;;;;4.00;1.90;;;3.20;99.90;;;;;;4931881;29;20054;-83
2022/01/06 07:38:44;;;;;;;4.05;1.80;;;3.20;99.90;;;;;;4939292;29;20075;-87
2022/01/06 07:41:11;;;;;;;4.00;2.10;;;3.20;99.90;;;;;;4931683;29;20051;-80
2022/01/06 07:43:38;;;;;;;3.97;2.03;;;3.20;99.90;;;;;;4924723;29;20044;-81
2022/01/06 07:46:07;;;;;;;3.25;1.60;;;3.20;99.90;;;;;;4945907;29;20082;-81
2022/01/06 07:48:48;;;;;;;3.55;2.00;;;3.20;99.90;;;;;;4940433;29;20083;-81
2022/01/06 07:51:15;;;;;;;3.42;1.80;;;3.20;99.90;;;;;;4932319;29;20088;-81
2022/01/06 07:53:42;;;;;;;3.72;2.08;;;3.20;99.90;;;;;;4929434;29;20051;-83
2022/01/06 07:56:10;;;;;;;4.13;1.88;;;3.20;99.90;;;;;;4944073;29;20134;-81
2022/01/06 07:58:37;;;;;;;3.78;1.85;;;3.20;99.90;;;;;;4918850;29;20693;-82
2022/01/06 08:01:06;;;;;;;4.53;1.80;;;3.30;99.90;;;;;;4936368;29;20048;-88
2022/01/06 08:03:33;;;;;;;3.90;1.80;;;3.30;99.90;;;;;;4923529;29;20075;-83
2022/01/06 08:06:00;;;;;;;4.22;1.90;;;3.20;99.90;;;;;;4929025;29;20398;-87
2022/01/06 08:08:28;;;;;;;4.35;1.88;;;3.20;99.90;;;;;;4935305;29;20473;-88
2022/01/06 08:10:55;;;;;;;4.75;1.88;;;3.20;99.90;;;;;;4936703;29;20215;-89
2022/01/06 08:13:22;;;;;;;4.07;2.00;;;3.20;99.90;;;;;;4943581;29;20134;-87
2022/01/06 08:15:49;;;;;;;3.88;1.73;;;3.30;99.90;;;;;;4926302;29;20476;-93
2022/01/06 08:18:18;;;;;;;4.40;1.70;;;3.30;99.90;;;;;;4941717;29;20082;-92
2022/01/06 08:20:48;;;;;;;4.25;1.80;;;3.30;99.90;;;;;;4909746;29;20052;-91
2022/01/06 08:23:16;;;;;;;3.80;1.90;;;3.40;99.90;;;;;;4946413;28;20055;-96
2022/01/06 08:25:44;;;;;;;4.32;1.77;;;3.40;99.90;;;;;;4933030;29;20044;-96
2022/01/06 08:28:14;;;;;;;5.53;1.75;;;3.40;99.90;;;;;;4930963;29;20486;-96
2022/01/06 08:30:46;;;;;;;4.63;2.00;;;3.40;99.90;;;;;;4929533;29;20068;-96
2022/01/06 08:33:37;;;;;;;4.15;1.95;;;3.40;99.90;;;;;;4943882;29;20048;-94
2022/01/06 08:36:05;;;;;;;3.70;1.55;;;3.50;99.90;;;;;;4926575;29;20462;-93
2022/01/06 08:38:32;;;;;;;3.22;1.80;;;3.50;99.90;;;;;;4908723;29;20044;-94
2022/01/06 08:41:00;;;;;;;5.55;2.00;;;3.50;99.90;;;;;;4942560;29;20066;-92
2022/01/06 08:43:28;;;;;;;4.53;1.77;;;3.50;99.90;;;;;;4945714;29;20075;-94
2022/01/06 08:45:56;;;;;;;5.35;2.05;;;3.60;99.90;;;;;;4928108;29;20115;-95
2022/01/06 08:48:24;;;;;;;6.35;2.03;;;3.50;99.90;;;;;;4946396;29;20050;-96
2022/01/06 08:50:53;;;;;;;3.55;1.73;;;3.50;99.90;;;;;;4944976;29;20048;-95
2022/01/06 08:53:22;;;;;;;4.30;1.70;;;3.50;99.90;;;;;;4934621;29;20094;-96
2022/01/06 08:55:49;;;;;;;3.70;1.52;;;3.50;99.90;;;;;;4946619;29;20062;-95
2022/01/06 08:58:18;;;;;;;4.70;1.88;;;3.50;99.90;;;;;;4944127;29;20082;-95
2022/01/06 09:00:46;;;;;;;5.78;2.05;;;3.60;99.90;;;;;;4961957;28;20129;-94
2022/01/06 09:03:13;;;;;;;4.57;1.80;;;3.60;99.90;;;;;;4945826;28;20145;-93
2022/01/06 09:05:41;;;;;;;5.75;1.85;;;3.60;99.90;;;;;;4932934;29;20043;-95
2022/01/06 09:08:10;;;;;;;4.57;1.90;;;3.60;99.90;;;;;;4943512;29;20463;-96
2022/01/06 09:10:37;;;;;;;3.38;1.60;;;3.60;99.90;;;;;;4900623;29;20052;-96
2022/01/06 09:13:06;;;;;;;4.47;2.00;;;3.70;99.90;;;;;;4946035;29;20417;-95
2022/01/06 09:15:35;;;;;;;5.95;2.53;;;3.60;99.90;;;;;;4950707;29;20051;-96
2022/01/06 09:18:06;;;;;;;3.90;1.90;;;3.60;99.90;;;;;;4946327;28;20115;-78
2022/01/06 09:20:36;;;;;;;4.43;1.83;;;3.60;99.90;;;;;;4943664;29;20577;-86
2022/01/06 09:23:04;;;;;;;6.38;2.00;;;3.60;99.90;;;;;;4942448;29;20086;-81
2022/01/06 09:25:32;;;;;;;3.92;2.15;;;3.70;99.90;;;;;;4948597;29;20115;-81
2022/01/06 09:27:59;;;;;;;3.85;1.90;;;3.70;99.90;;;;;;4950379;29;20082;-84
2022/01/06 09:30:26;;;;;;;4.20;2.22;;;3.80;99.90;;;;;;4941924;28;20047;-85
2022/01/06 09:32:54;;;;;;;5.20;2.10;;;3.80;99.90;;;;;;4945331;29;20130;-88
2022/01/06 09:35:22;;;;;;;4.22;2.13;;;3.80;99.90;;;;;;4946348;29;20409;-93
2022/01/06 09:37:54;;;;;;;4.30;2.05;;;3.80;99.90;;;;;;4950656;28;20066;-95
2022/01/06 09:40:22;;;;;;;4.10;2.05;;;3.80;99.90;;;;;;4942465;29;20047;-93
2022/01/06 09:42:56;;;;;;;4.60;1.70;;;3.80;99.90;;;;;;4948467;29;20110;-92
2022/01/06 09:45:28;;;;;;;4.65;2.25;;;3.90;99.90;;;;;;4952097;29;20055;-95
2022/01/06 09:47:58;;;;;;;4.30;1.80;;;4.00;99.90;;;;;;4953494;29;20040;-92
2022/01/06 09:50:30;;;;;;;4.95;2.00;;;4.00;99.90;;;;;;4947837;29;20408;-96
2022/01/06 09:52:58;;;;;;;7.10;2.08;;;4.10;99.90;;;;;;4948424;29;20079;-89
2022/01/06 09:55:28;;;;;;;6.03;2.10;;;4.10;99.90;;;;;;4929069;29;20048;-92
2022/01/06 09:58:07;;;;;;;5.97;2.08;;;4.10;99.90;;;;;;4928155;29;20056;-94
2022/01/06 10:00:41;;;;;;;5.00;1.95;;;4.10;99.90;;;;;;4929010;29;20051;-91
2022/01/06 10:03:09;;;;;;;6.73;2.10;;;4.10;99.90;;;;;;4950461;29;20055;-97
2022/01/06 10:05:43;;;;;;;5.28;1.90;;;4.10;99.90;;;;;;4914904;29;20061;-95
2022/01/06 10:08:13;;;;;;;3.90;1.90;;;4.10;99.90;;;;;;4927336;29;20227;-91
2022/01/06 10:10:42;;;;;;;6.03;2.20;;;4.20;99.90;;;;;;4924488;29;20056;-90
2022/01/06 10:13:16;;;;;;;4.75;1.75;;;4.30;99.90;;;;;;4927602;29;20055;-96
2022/01/06 10:15:46;;;;;;;4.88;2.20;;;4.30;99.90;;;;;;4934684;29;20138;-93
2022/01/06 10:18:20;;;;;;;5.28;1.90;;;4.40;99.90;;;;;;4933617;29;20112;-96
2022/01/06 10:26:30;;;;;;;3.70;1.88;;;4.70;99.90;;;;;;4936110;29;20087;-93
2022/01/06 10:28:59;;;;;;;4.90;2.10;;;4.80;99.90;;;;;;4939489;29;20072;-96
2022/01/06 10:34:52;;;;;;;5.40;2.10;;;5.00;99.90;;;;;;4952876;29;20063;-95
2022/01/06 10:37:24;;;;;;;6.35;1.98;;;5.10;99.90;;;;;;4948215;29;20036;-96
2022/01/06 10:39:57;;;;;;;4.30;2.05;;;5.10;99.90;;;;;;4961743;29;20040;-96
2022/01/06 10:42:27;;;;;;;4.10;1.80;;;5.10;99.90;;;;;;4957410;29;20100;-92
2022/01/06 10:45:00;;;;;;;5.10;2.00;;;5.10;99.90;;;;;;4919894;29;20072;-88
2022/01/06 10:47:33;;;;;;;4.88;1.80;;;5.10;99.90;;;;;;4919770;29;20057;-89
2022/01/06 10:50:17;;;;;;;6.57;2.20;;;5.10;99.90;;;;;;4920577;29;20083;-94
2022/01/06 10:52:46;;;;;;;5.25;2.10;;;5.00;99.90;;;;;;4921534;29;20085;-93
2022/01/06 10:55:17;;;;;;;5.53;2.10;;;5.00;99.90;;;;;;4920742;29;20076;-95
2022/01/06 10:57:53;;;;;;;4.60;2.00;;;5.10;99.90;;;;;;4917563;29;20057;-96
2022/01/06 11:00:24;;;;;;;5.30;2.03;;;5.10;99.90;;;;;;4923757;29;20051;-97
2022/01/06 11:02:52;;;;;;;4.82;2.20;;;5.10;99.90;;;;;;4938146;29;20077;-96
2022/01/06 11:05:20;;;;;;;6.22;2.45;;;5.20;99.90;;;;;;4957374;28;20039;-96
2022/01/06 11:07:47;;;;;;;5.85;2.33;;;5.20;99.90;;;;;;4942726;29;20110;-87
2022/01/06 11:10:19;;;;;;;3.85;2.00;;;5.20;99.90;;;;;;4925766;29;20582;-84
2022/01/06 11:12:46;;;;;;;6.80;2.15;;;5.20;99.90;;;;;;4921382;29;20050;-83
2022/01/06 11:15:13;;;;;;;6.80;2.15;;;5.20;99.90;;;;;;4937770;29;20047;-80
2022/01/06 11:17:48;;;;;;;6.40;2.35;;;5.20;99.90;;;;;;4938743;29;20074;-88
2022/01/06 11:20:16;;;;;;;5.68;2.13;;;5.20;99.90;;;;;;4936641;29;20076;-84
2022/01/06 11:22:52;;;;;;;6.15;2.33;;;5.20;99.90;;;;;;4925363;29;20127;-86
2022/01/06 11:25:35;;;;;;;5.85;2.42;;;5.20;99.90;;;;;;4931826;29;20142;-83
2022/01/06 11:28:08;;;;;;;8.70;2.70;;;5.20;99.90;;;;;;4930659;29;20059;-82
2022/01/06 11:33:49;;;;;;;4.75;1.95;;;5.10;99.90;;;;;;989322;23;20486;-85
2022/01/06 11:36:22;;;;;;;5.82;2.30;;;5.10;99.90;;;;;;4935929;29;20497;-83
2022/01/06 11:38:52;;;;;;;7.13;2.30;;;5.10;99.90;;;;;;4947940;28;20083;-84
2022/01/06 11:41:20;;;;;;;4.55;2.05;;;5.00;99.90;;;;;;4944938;29;20145;-81
2022/01/06 11:43:49;;;;;;;7.32;2.15;;;5.00;99.90;;;;;;4945879;29;20051;-83
2022/01/06 11:46:17;;;;;;;7.30;2.33;;;5.00;99.90;;;;;;4943748;28;20118;-80
2022/01/06 11:48:52;;;;;;;6.95;2.35;;;5.00;99.90;;;;;;4940571;29;20137;-80
2022/01/06 11:51:27;;;;;;;8.40;2.28;;;5.00;99.90;;;;;;4951150;29;20142;-80
2022/01/06 11:53:55;;;;;;;5.22;2.08;;;5.00;99.90;;;;;;4945048;29;20138;-79
2022/01/06 11:56:23;;;;;;;6.18;2.20;;;5.00;99.90;;;;;;4945952;29;20051;-79
2022/01/06 11:59:02;;;;;;;5.75;2.38;;;5.00;99.90;;;;;;4948958;28;20442;-79
2022/01/06 12:01:44;;;;;;;8.23;2.10;;;5.10;99.90;;;;;;4945035;29;20150;-80
2022/01/06 12:04:17;;;;;;;9.38;1.95;;;5.10;99.90;;;;;;4946567;29;20051;-80
2022/01/06 12:06:45;;;;;;;8.18;1.85;;;5.00;99.90;;;;;;4947899;29;20083;-81
2022/01/06 12:09:20;;;;;;;8.43;2.58;;;5.00;99.90;;;;;;4946531;28;20126;-82
2022/01/06 12:11:48;;;;;;;10.65;1.92;;;5.00;99.90;;;;;;4946681;29;20442;-81
2022/01/06 12:14:25;;;;;;;6.75;1.67;;;5.00;99.90;;;;;;4951688;29;20482;-80
2022/01/06 12:16:52;;;;;;;7.95;1.83;;;4.90;99.60;;;;;;4944844;29;20126;-82
2022/01/06 12:19:23;;;;;;;7.50;1.35;;;4.80;99.80;;;;;;4945496;29;20717;-85
2022/01/06 12:21:51;;;;;;;4.13;1.05;;;4.70;99.30;;;;;;4944063;29;20054;-86
2022/01/06 12:24:18;;;;;;;3.15;1.02;;;4.70;98.10;;;;;;4948159;28;20104;-86
2022/01/06 12:27:10;;;;;;;5.47;1.20;;;4.70;98.00;;;;;;4948531;28;20130;-86
2022/01/06 12:29:38;;;;;;;6.82;1.30;;;4.70;98.00;;;;;;4949311;29;20474;-88
2022/01/06 12:32:11;;;;;;;4.47;1.15;;;4.70;97.70;;;;;;4940303;28;20055;-89
2022/01/06 12:34:43;;;;;;;7.88;1.60;;;4.70;97.90;;;;;;4949755;28;20066;-88
2022/01/06 12:37:10;;;;;;;3.90;1.00;;;4.80;97.80;;;;;;4953601;29;20047;-88
2022/01/06 12:39:37;;;;;;;4.38;1.20;;;4.90;98.00;;;;;;4949496;29;20047;-87
2022/01/06 12:42:07;;;;;;;4.28;1.00;;;4.90;98.20;;;;;;4948018;29;20130;-86
2022/01/06 12:44:34;;;;;;;5.20;1.00;;;5.00;98.20;;;;;;4943474;28;20476;-86
2022/01/06 12:47:06;;;;;;;6.50;1.20;;;5.10;98.20;;;;;;4935900;29;20137;-88
2022/01/06 12:49:33;;;;;;;5.97;1.20;;;5.20;98.10;;;;;;4940632;29;20058;-88
2022/01/06 12:52:03;;;;;;;5.78;1.23;;;5.30;98.00;;;;;;4941078;28;20139;-87
2022/01/06 12:54:32;;;;;;;7.60;1.38;;;5.50;98.60;;;;;;4950964;29;20044;-85
2022/01/06 12:57:03;;;;;;;7.35;1.35;;;5.90;99.20;;;;;;4938677;29;20059;-85
2022/01/06 12:59:34;;;;;;;8.80;1.70;;;6.50;99.20;;;;;;4937352;29;20055;-85
2022/01/06 13:02:05;;;;;;;7.00;2.10;;;7.70;99.90;;;;;;4944041;29;20148;-81
2022/01/06 13:04:38;;;;;;;7.10;1.70;;;7.80;99.90;;;;;;4932489;29;20568;-82
2022/01/06 13:07:10;;;;;;;8.00;1.80;;;8.10;99.90;;;;;;4932356;29;20050;-83
2022/01/06 13:09:38;;;;;;;6.05;1.77;;;8.40;99.90;;;;;;4932053;29;20111;-82
2022/01/06 13:12:09;;;;;;;9.13;2.10;;;8.50;99.90;;;;;;4932188;29;20083;-85
2022/01/06 13:14:39;;;;;;;5.53;1.63;;;8.50;99.90;;;;;;4932051;29;20098;-84
2022/01/06 13:17:11;;;;;;;8.45;2.10;;;8.70;99.90;;;;;;4932619;29;20527;-82
2022/01/06 13:19:43;;;;;;;5.50;1.65;;;8.90;99.60;;;;;;4941055;29;20515;-84
2022/01/06 13:22:23;;;;;;;7.20;2.03;;;;;;;;;;4951487;29;20393;-84
2022/01/06 13:24:50;;;;;;;5.50;1.60;;;;;;;;;;4933417;29;20050;-82
2022/01/06 13:27:18;;;;;;;6.72;1.63;;;;;;;;;;4932597;29;20091;-85